sensor_id;sensor_type;location;lat;lon;timestamp;P1;durP1;ratioP1;P2;durP2;ratioP2
26484;SDS011;18083;50.560;7.262;2023-02-15T00:01:46;64.97;;;29.93;;
26484;SDS011;18083;50.560;7.262;2023-02-15T00:04:14;71.87;;;30.30;;
26484;SDS011;18083;50.560;7.262;2023-02-15T00:06:42;67.23;;;32.77;;
26484;SDS011;18083;50.560;7.262;2023-02-15T00:09:09;70.03;;;36.23;;
26484;SDS011;18083;50.560;7.262;2023-02-15T00:14:24;72.73;;;33.43;;
26484;SDS011;18083;50.560;7.262;2023-02-15T00:16:51;80.27;;;32.97;;
26484;SDS011;18083;50.560;7.262;2023-02-15T00:19:20;82.60;;;38.00;;
26484;SDS011;18083;50.560;7.262;2023-02-15T00:21:48;86.33;;;39.83;;
26484;SDS011;18083;50.560;7.262;2023-02-15T00:24:16;86.90;;;42.03;;
26484;SDS011;18083;50.560;7.262;2023-02-15T00:26:45;89.63;;;41.63;;
26484;SDS011;18083;50.560;7.262;2023-02-15T00:29:17;79.43;;;35.90;;
26484;SDS011;18083;50.560;7.262;2023-02-15T00:31:51;77.00;;;33.97;;
26484;SDS011;18083;50.560;7.262;2023-02-15T00:40:22;76.67;;;34.60;;
26484;SDS011;18083;50.560;7.262;2023-02-15T00:42:57;76.80;;;34.00;;
26484;SDS011;18083;50.560;7.262;2023-02-15T00:45:27;80.17;;;34.63;;
26484;SDS011;18083;50.560;7.262;2023-02-15T00:47:54;74.63;;;32.40;;
26484;SDS011;18083;50.560;7.262;2023-02-15T00:50:22;95.33;;;38.37;;
26484;SDS011;18083;50.560;7.262;2023-02-15T00:52:49;81.80;;;34.97;;
26484;SDS011;18083;50.560;7.262;2023-02-15T00:55:16;77.57;;;34.50;;
26484;SDS011;18083;50.560;7.262;2023-02-15T00:57:44;83.30;;;33.90;;
26484;SDS011;18083;50.560;7.262;2023-02-15T01:00:11;80.77;;;38.30;;
26484;SDS011;18083;50.560;7.262;2023-02-15T01:02:39;76.83;;;35.00;;
26484;SDS011;18083;50.560;7.262;2023-02-15T01:05:06;84.23;;;37.47;;
26484;SDS011;18083;50.560;7.262;2023-02-15T01:07:33;89.20;;;36.87;;
26484;SDS011;18083;50.560;7.262;2023-02-15T01:10:01;73.63;;;32.70;;
26484;SDS011;18083;50.560;7.262;2023-02-15T01:12:28;80.10;;;32.03;;
26484;SDS011;18083;50.560;7.262;2023-02-15T01:14:55;86.30;;;40.60;;
26484;SDS011;18083;50.560;7.262;2023-02-15T01:17:23;76.50;;;35.63;;
26484;SDS011;18083;50.560;7.262;2023-02-15T01:19:50;71.73;;;31.50;;
26484;SDS011;18083;50.560;7.262;2023-02-15T01:22:18;63.13;;;29.13;;
26484;SDS011;18083;50.560;7.262;2023-02-15T01:24:45;72.67;;;31.93;;
26484;SDS011;18083;50.560;7.262;2023-02-15T01:27:14;82.33;;;34.07;;
26484;SDS011;18083;50.560;7.262;2023-02-15T01:29:41;84.33;;;39.53;;
26484;SDS011;18083;50.560;7.262;2023-02-15T01:32:09;72.27;;;32.17;;
26484;SDS011;18083;50.560;7.262;2023-02-15T01:34:36;74.97;;;33.03;;
26484;SDS011;18083;50.560;7.262;2023-02-15T01:37:03;83.13;;;38.33;;
26484;SDS011;18083;50.560;7.262;2023-02-15T01:39:31;67.37;;;30.83;;
26484;SDS011;18083;50.560;7.262;2023-02-15T01:41:58;69.40;;;30.40;;
26484;SDS011;18083;50.560;7.262;2023-02-15T01:47:11;72.93;;;30.83;;
26484;SDS011;18083;50.560;7.262;2023-02-15T01:49:39;72.23;;;32.67;;
26484;SDS011;18083;50.560;7.262;2023-02-15T01:52:08;75.87;;;33.27;;
26484;SDS011;18083;50.560;7.262;2023-02-15T01:54:36;75.17;;;28.53;;
26484;SDS011;18083;50.560;7.262;2023-02-15T01:57:05;64.40;;;28.47;;
26484;SDS011;18083;50.560;7.262;2023-02-15T01:59:34;66.90;;;29.27;;
26484;SDS011;18083;50.560;7.262;2023-02-15T02:02:02;68.83;;;31.37;;
26484;SDS011;18083;50.560;7.262;2023-02-15T02:04:33;73.37;;;32.13;;
26484;SDS011;18083;50.560;7.262;2023-02-15T02:07:00;78.77;;;35.00;;
26484;SDS011;18083;50.560;7.262;2023-02-15T02:09:28;69.07;;;33.73;;
26484;SDS011;18083;50.560;7.262;2023-02-15T02:11:56;74.57;;;32.63;;
26484;SDS011;18083;50.560;7.262;2023-02-15T02:14:23;68.43;;;31.87;;
26484;SDS011;18083;50.560;7.262;2023-02-15T02:16:53;71.33;;;30.70;;
26484;SDS011;18083;50.560;7.262;2023-02-15T02:22:13;77.80;;;31.47;;
26484;SDS011;18083;50.560;7.262;2023-02-15T02:27:36;77.43;;;36.50;;
26484;SDS011;18083;50.560;7.262;2023-02-15T02:30:13;69.13;;;33.57;;
26484;SDS011;18083;50.560;7.262;2023-02-15T02:35:28;76.70;;;33.17;;
26484;SDS011;18083;50.560;7.262;2023-02-15T02:38:08;74.07;;;29.97;;
26484;SDS011;18083;50.560;7.262;2023-02-15T02:40:43;73.40;;;33.67;;
26484;SDS011;18083;50.560;7.262;2023-02-15T02:43:15;61.13;;;27.47;;
26484;SDS011;18083;50.560;7.262;2023-02-15T02:45:40;72.90;;;30.37;;
26484;SDS011;18083;50.560;7.262;2023-02-15T02:48:13;67.50;;;32.10;;
26484;SDS011;18083;50.560;7.262;2023-02-15T02:50:38;73.07;;;30.73;;
26484;SDS011;18083;50.560;7.262;2023-02-15T02:53:06;65.43;;;28.37;;
26484;SDS011;18083;50.560;7.262;2023-02-15T02:55:35;77.43;;;30.97;;
26484;SDS011;18083;50.560;7.262;2023-02-15T02:58:10;78.60;;;34.10;;
26484;SDS011;18083;50.560;7.262;2023-02-15T03:00:38;66.07;;;31.23;;
26484;SDS011;18083;50.560;7.262;2023-02-15T03:03:06;71.43;;;30.63;;
26484;SDS011;18083;50.560;7.262;2023-02-15T03:05:36;61.57;;;27.43;;
26484;SDS011;18083;50.560;7.262;2023-02-15T03:08:03;66.07;;;30.13;;
26484;SDS011;18083;50.560;7.262;2023-02-15T03:10:36;56.40;;;27.17;;
26484;SDS011;18083;50.560;7.262;2023-02-15T03:13:05;60.03;;;29.17;;
26484;SDS011;18083;50.560;7.262;2023-02-15T03:15:38;58.53;;;29.03;;
26484;SDS011;18083;50.560;7.262;2023-02-15T03:18:20;75.63;;;36.27;;
26484;SDS011;18083;50.560;7.262;2023-02-15T03:20:48;65.43;;;31.90;;
26484;SDS011;18083;50.560;7.262;2023-02-15T03:23:17;67.33;;;29.63;;
26484;SDS011;18083;50.560;7.262;2023-02-15T03:25:46;64.60;;;28.73;;
26484;SDS011;18083;50.560;7.262;2023-02-15T03:28:15;65.07;;;26.90;;
26484;SDS011;18083;50.560;7.262;2023-02-15T03:30:43;62.83;;;26.73;;
26484;SDS011;18083;50.560;7.262;2023-02-15T03:33:11;64.53;;;28.77;;
26484;SDS011;18083;50.560;7.262;2023-02-15T03:36:04;64.00;;;28.30;;
26484;SDS011;18083;50.560;7.262;2023-02-15T03:38:09;61.83;;;27.97;;
26484;SDS011;18083;50.560;7.262;2023-02-15T03:40:39;68.27;;;30.50;;
26484;SDS011;18083;50.560;7.262;2023-02-15T03:46:03;67.80;;;28.03;;
26484;SDS011;18083;50.560;7.262;2023-02-15T03:48:35;61.73;;;27.13;;
26484;SDS011;18083;50.560;7.262;2023-02-15T03:51:05;62.77;;;28.57;;
26484;SDS011;18083;50.560;7.262;2023-02-15T03:53:51;62.67;;;29.23;;
26484;SDS011;18083;50.560;7.262;2023-02-15T03:56:19;77.20;;;37.10;;
26484;SDS011;18083;50.560;7.262;2023-02-15T03:58:47;69.33;;;32.77;;
26484;SDS011;18083;50.560;7.262;2023-02-15T04:01:54;69.90;;;28.30;;
26484;SDS011;18083;50.560;7.262;2023-02-15T04:04:36;65.23;;;33.67;;
26484;SDS011;18083;50.560;7.262;2023-02-15T04:06:54;64.50;;;28.23;;
26484;SDS011;18083;50.560;7.262;2023-02-15T04:09:22;60.20;;;27.77;;
26484;SDS011;18083;50.560;7.262;2023-02-15T04:12:07;64.37;;;32.63;;
26484;SDS011;18083;50.560;7.262;2023-02-15T04:14:35;72.60;;;30.83;;
26484;SDS011;18083;50.560;7.262;2023-02-15T04:17:20;60.47;;;27.53;;
26484;SDS011;18083;50.560;7.262;2023-02-15T04:19:48;60.30;;;27.10;;
26484;SDS011;18083;50.560;7.262;2023-02-15T04:22:33;66.97;;;28.97;;
26484;SDS011;18083;50.560;7.262;2023-02-15T04:25:18;59.13;;;27.37;;
26484;SDS011;18083;50.560;7.262;2023-02-15T04:27:50;67.73;;;27.23;;
26484;SDS011;18083;50.560;7.262;2023-02-15T04:30:18;56.20;;;27.07;;
26484;SDS011;18083;50.560;7.262;2023-02-15T04:32:46;61.00;;;27.60;;
26484;SDS011;18083;50.560;7.262;2023-02-15T04:35:13;58.00;;;26.77;;
26484;SDS011;18083;50.560;7.262;2023-02-15T04:37:41;54.73;;;26.00;;
26484;SDS011;18083;50.560;7.262;2023-02-15T04:40:10;56.43;;;23.73;;
26484;SDS011;18083;50.560;7.262;2023-02-15T04:42:37;53.23;;;25.70;;
26484;SDS011;18083;50.560;7.262;2023-02-15T04:45:05;61.87;;;26.87;;
26484;SDS011;18083;50.560;7.262;2023-02-15T04:47:32;63.30;;;27.20;;
26484;SDS011;18083;50.560;7.262;2023-02-15T04:50:00;57.47;;;26.23;;
26484;SDS011;18083;50.560;7.262;2023-02-15T04:52:27;57.83;;;23.73;;
26484;SDS011;18083;50.560;7.262;2023-02-15T04:54:55;52.73;;;24.33;;
26484;SDS011;18083;50.560;7.262;2023-02-15T04:57:22;56.17;;;26.33;;
26484;SDS011;18083;50.560;7.262;2023-02-15T04:59:49;57.47;;;26.50;;
26484;SDS011;18083;50.560;7.262;2023-02-15T05:02:17;60.53;;;28.90;;
26484;SDS011;18083;50.560;7.262;2023-02-15T05:04:44;53.23;;;24.20;;
26484;SDS011;18083;50.560;7.262;2023-02-15T05:07:11;56.00;;;26.37;;
26484;SDS011;18083;50.560;7.262;2023-02-15T05:09:39;53.30;;;25.30;;
26484;SDS011;18083;50.560;7.262;2023-02-15T05:12:06;59.70;;;26.70;;
26484;SDS011;18083;50.560;7.262;2023-02-15T05:14:34;57.57;;;28.30;;
26484;SDS011;18083;50.560;7.262;2023-02-15T05:17:01;58.53;;;26.20;;
26484;SDS011;18083;50.560;7.262;2023-02-15T05:19:29;54.53;;;24.97;;
26484;SDS011;18083;50.560;7.262;2023-02-15T05:21:56;55.27;;;25.63;;
26484;SDS011;18083;50.560;7.262;2023-02-15T05:24:24;50.40;;;26.00;;
26484;SDS011;18083;50.560;7.262;2023-02-15T05:27:13;47.97;;;22.60;;
26484;SDS011;18083;50.560;7.262;2023-02-15T05:29:58;50.60;;;23.30;;
26484;SDS011;18083;50.560;7.262;2023-02-15T05:32:25;49.30;;;25.10;;
26484;SDS011;18083;50.560;7.262;2023-02-15T05:34:53;50.47;;;24.30;;
26484;SDS011;18083;50.560;7.262;2023-02-15T05:37:20;48.43;;;22.90;;
26484;SDS011;18083;50.560;7.262;2023-02-15T05:39:47;48.90;;;22.70;;
26484;SDS011;18083;50.560;7.262;2023-02-15T05:42:15;54.57;;;23.03;;
26484;SDS011;18083;50.560;7.262;2023-02-15T05:44:42;47.63;;;21.67;;
26484;SDS011;18083;50.560;7.262;2023-02-15T05:47:09;55.17;;;24.87;;
26484;SDS011;18083;50.560;7.262;2023-02-15T05:49:37;52.67;;;22.43;;
26484;SDS011;18083;50.560;7.262;2023-02-15T05:52:04;41.67;;;19.90;;
26484;SDS011;18083;50.560;7.262;2023-02-15T05:54:31;44.07;;;24.47;;
26484;SDS011;18083;50.560;7.262;2023-02-15T05:56:59;45.23;;;21.40;;
26484;SDS011;18083;50.560;7.262;2023-02-15T05:59:26;42.23;;;22.73;;
26484;SDS011;18083;50.560;7.262;2023-02-15T06:01:53;46.47;;;21.33;;
26484;SDS011;18083;50.560;7.262;2023-02-15T06:04:21;39.10;;;19.40;;
26484;SDS011;18083;50.560;7.262;2023-02-15T06:06:48;44.90;;;21.13;;
26484;SDS011;18083;50.560;7.262;2023-02-15T06:09:15;43.53;;;21.23;;
26484;SDS011;18083;50.560;7.262;2023-02-15T06:11:44;46.80;;;19.87;;
26484;SDS011;18083;50.560;7.262;2023-02-15T06:14:12;47.43;;;25.30;;
26484;SDS011;18083;50.560;7.262;2023-02-15T06:16:39;46.77;;;24.23;;
26484;SDS011;18083;50.560;7.262;2023-02-15T06:19:06;40.00;;;21.17;;
26484;SDS011;18083;50.560;7.262;2023-02-15T06:21:34;44.07;;;20.60;;
26484;SDS011;18083;50.560;7.262;2023-02-15T06:24:01;48.50;;;22.83;;
26484;SDS011;18083;50.560;7.262;2023-02-15T06:26:31;41.60;;;19.17;;
26484;SDS011;18083;50.560;7.262;2023-02-15T06:28:59;43.17;;;20.20;;
26484;SDS011;18083;50.560;7.262;2023-02-15T06:31:26;37.00;;;19.27;;
26484;SDS011;18083;50.560;7.262;2023-02-15T06:33:54;42.77;;;21.80;;
26484;SDS011;18083;50.560;7.262;2023-02-15T06:36:23;37.00;;;18.17;;
26484;SDS011;18083;50.560;7.262;2023-02-15T06:38:50;38.23;;;20.00;;
26484;SDS011;18083;50.560;7.262;2023-02-15T06:41:18;40.27;;;18.80;;
26484;SDS011;18083;50.560;7.262;2023-02-15T06:43:45;41.57;;;18.87;;
26484;SDS011;18083;50.560;7.262;2023-02-15T06:46:12;42.07;;;21.13;;
26484;SDS011;18083;50.560;7.262;2023-02-15T06:48:40;32.47;;;17.40;;
26484;SDS011;18083;50.560;7.262;2023-02-15T06:51:07;33.57;;;17.10;;
26484;SDS011;18083;50.560;7.262;2023-02-15T06:53:34;33.57;;;18.07;;
26484;SDS011;18083;50.560;7.262;2023-02-15T06:56:05;35.97;;;17.37;;
26484;SDS011;18083;50.560;7.262;2023-02-15T06:58:35;42.17;;;19.60;;
26484;SDS011;18083;50.560;7.262;2023-02-15T07:01:02;43.80;;;19.60;;
26484;SDS011;18083;50.560;7.262;2023-02-15T07:03:30;41.17;;;19.80;;
26484;SDS011;18083;50.560;7.262;2023-02-15T07:05:58;48.37;;;20.90;;
26484;SDS011;18083;50.560;7.262;2023-02-15T07:08:26;43.60;;;18.63;;
26484;SDS011;18083;50.560;7.262;2023-02-15T07:10:54;40.17;;;19.13;;
26484;SDS011;18083;50.560;7.262;2023-02-15T07:13:23;40.23;;;20.03;;
26484;SDS011;18083;50.560;7.262;2023-02-15T07:15:51;51.73;;;21.07;;
26484;SDS011;18083;50.560;7.262;2023-02-15T07:18:18;35.77;;;20.30;;
26484;SDS011;18083;50.560;7.262;2023-02-15T07:20:45;48.23;;;20.40;;
26484;SDS011;18083;50.560;7.262;2023-02-15T07:23:13;39.60;;;18.30;;
26484;SDS011;18083;50.560;7.262;2023-02-15T07:25:41;43.57;;;21.27;;
26484;SDS011;18083;50.560;7.262;2023-02-15T07:28:09;45.40;;;19.93;;
26484;SDS011;18083;50.560;7.262;2023-02-15T07:30:36;47.70;;;19.33;;
26484;SDS011;18083;50.560;7.262;2023-02-15T07:33:03;51.20;;;21.77;;
26484;SDS011;18083;50.560;7.262;2023-02-15T07:35:49;46.17;;;20.90;;
26484;SDS011;18083;50.560;7.262;2023-02-15T07:38:18;43.57;;;20.43;;
26484;SDS011;18083;50.560;7.262;2023-02-15T07:40:45;46.57;;;23.40;;
26484;SDS011;18083;50.560;7.262;2023-02-15T07:43:13;39.00;;;21.30;;
26484;SDS011;18083;50.560;7.262;2023-02-15T07:45:40;48.17;;;20.53;;
26484;SDS011;18083;50.560;7.262;2023-02-15T07:48:08;44.30;;;20.20;;
26484;SDS011;18083;50.560;7.262;2023-02-15T07:50:35;49.87;;;25.00;;
26484;SDS011;18083;50.560;7.262;2023-02-15T07:53:03;43.93;;;20.77;;
26484;SDS011;18083;50.560;7.262;2023-02-15T07:55:30;46.47;;;21.93;;
26484;SDS011;18083;50.560;7.262;2023-02-15T07:57:57;49.30;;;23.70;;
26484;SDS011;18083;50.560;7.262;2023-02-15T08:00:25;42.97;;;17.37;;
26484;SDS011;18083;50.560;7.262;2023-02-15T08:02:56;37.00;;;19.67;;
26484;SDS011;18083;50.560;7.262;2023-02-15T08:05:43;45.50;;;24.70;;
26484;SDS011;18083;50.560;7.262;2023-02-15T08:08:11;39.47;;;20.00;;
26484;SDS011;18083;50.560;7.262;2023-02-15T08:10:57;37.33;;;18.73;;
26484;SDS011;18083;50.560;7.262;2023-02-15T08:13:44;38.57;;;20.20;;
26484;SDS011;18083;50.560;7.262;2023-02-15T08:16:16;41.30;;;19.50;;
26484;SDS011;18083;50.560;7.262;2023-02-15T08:18:43;39.37;;;18.30;;
26484;SDS011;18083;50.560;7.262;2023-02-15T08:21:10;33.63;;;17.10;;
26484;SDS011;18083;50.560;7.262;2023-02-15T08:23:38;33.00;;;18.53;;
26484;SDS011;18083;50.560;7.262;2023-02-15T08:26:05;37.00;;;20.27;;
26484;SDS011;18083;50.560;7.262;2023-02-15T08:28:32;29.93;;;16.07;;
26484;SDS011;18083;50.560;7.262;2023-02-15T08:31:10;29.13;;;16.07;;
26484;SDS011;18083;50.560;7.262;2023-02-15T08:33:38;29.27;;;17.00;;
26484;SDS011;18083;50.560;7.262;2023-02-15T08:36:07;33.83;;;16.33;;
26484;SDS011;18083;50.560;7.262;2023-02-15T08:38:35;32.57;;;16.73;;
26484;SDS011;18083;50.560;7.262;2023-02-15T08:41:14;29.10;;;14.63;;
26484;SDS011;18083;50.560;7.262;2023-02-15T08:43:37;34.60;;;18.23;;
26484;SDS011;18083;50.560;7.262;2023-02-15T08:46:05;25.63;;;15.60;;
26484;SDS011;18083;50.560;7.262;2023-02-15T08:48:33;32.33;;;16.53;;
26484;SDS011;18083;50.560;7.262;2023-02-15T08:51:08;29.63;;;16.03;;
26484;SDS011;18083;50.560;7.262;2023-02-15T08:53:37;27.83;;;16.57;;
26484;SDS011;18083;50.560;7.262;2023-02-15T08:56:05;24.83;;;13.37;;
26484;SDS011;18083;50.560;7.262;2023-02-15T08:58:33;28.20;;;14.07;;
26484;SDS011;18083;50.560;7.262;2023-02-15T09:01:00;24.47;;;14.30;;
26484;SDS011;18083;50.560;7.262;2023-02-15T09:03:30;33.37;;;16.93;;
26484;SDS011;18083;50.560;7.262;2023-02-15T09:05:58;27.30;;;15.63;;
26484;SDS011;18083;50.560;7.262;2023-02-15T09:08:26;32.47;;;16.27;;
26484;SDS011;18083;50.560;7.262;2023-02-15T09:10:54;32.10;;;16.90;;
26484;SDS011;18083;50.560;7.262;2023-02-15T09:13:21;27.70;;;13.63;;
26484;SDS011;18083;50.560;7.262;2023-02-15T09:15:49;27.97;;;16.30;;
26484;SDS011;18083;50.560;7.262;2023-02-15T09:18:16;31.53;;;16.27;;
26484;SDS011;18083;50.560;7.262;2023-02-15T09:20:43;26.17;;;14.73;;
26484;SDS011;18083;50.560;7.262;2023-02-15T09:23:11;29.87;;;15.60;;
26484;SDS011;18083;50.560;7.262;2023-02-15T09:25:38;31.30;;;17.20;;
26484;SDS011;18083;50.560;7.262;2023-02-15T09:28:06;24.40;;;13.00;;
26484;SDS011;18083;50.560;7.262;2023-02-15T09:30:33;29.70;;;16.03;;
26484;SDS011;18083;50.560;7.262;2023-02-15T09:33:01;31.47;;;16.43;;
26484;SDS011;18083;50.560;7.262;2023-02-15T09:35:28;34.17;;;15.60;;
26484;SDS011;18083;50.560;7.262;2023-02-15T09:37:55;32.30;;;15.53;;
26484;SDS011;18083;50.560;7.262;2023-02-15T09:40:23;27.63;;;14.37;;
26484;SDS011;18083;50.560;7.262;2023-02-15T09:45:31;27.80;;;15.77;;
26484;SDS011;18083;50.560;7.262;2023-02-15T09:56:39;31.20;;;15.77;;
26484;SDS011;18083;50.560;7.262;2023-02-15T10:09:20;30.80;;;18.10;;
26484;SDS011;18083;50.560;7.262;2023-02-15T10:19:52;29.80;;;16.97;;
26484;SDS011;18083;50.560;7.262;2023-02-15T10:27:20;30.03;;;18.33;;
26484;SDS011;18083;50.560;7.262;2023-02-15T10:32:23;26.53;;;17.10;;
26484;SDS011;18083;50.560;7.262;2023-02-15T10:40:53;23.27;;;13.50;;
26484;SDS011;18083;50.560;7.262;2023-02-15T10:48:04;30.07;;;15.97;;
26484;SDS011;18083;50.560;7.262;2023-02-15T11:07:02;24.43;;;15.33;;
26484;SDS011;18083;50.560;7.262;2023-02-15T11:12:25;20.83;;;13.73;;
26484;SDS011;18083;50.560;7.262;2023-02-15T11:30:50;26.37;;;15.00;;
26484;SDS011;18083;50.560;7.262;2023-02-15T11:38:52;22.13;;;14.83;;
26484;SDS011;18083;50.560;7.262;2023-02-15T11:41:21;20.20;;;14.17;;
26484;SDS011;18083;50.560;7.262;2023-02-15T11:43:54;22.00;;;14.63;;
26484;SDS011;18083;50.560;7.262;2023-02-15T11:46:22;21.67;;;13.40;;
26484;SDS011;18083;50.560;7.262;2023-02-15T11:48:49;20.83;;;14.97;;
26484;SDS011;18083;50.560;7.262;2023-02-15T11:51:17;21.13;;;12.50;;
26484;SDS011;18083;50.560;7.262;2023-02-15T11:53:46;26.60;;;13.70;;
26484;SDS011;18083;50.560;7.262;2023-02-15T12:06:38;26.57;;;13.20;;
26484;SDS011;18083;50.560;7.262;2023-02-15T12:15:07;23.13;;;13.93;;
26484;SDS011;18083;50.560;7.262;2023-02-15T12:17:37;18.00;;;13.30;;
26484;SDS011;18083;50.560;7.262;2023-02-15T12:20:20;23.47;;;14.50;;
26484;SDS011;18083;50.560;7.262;2023-02-15T12:22:36;21.40;;;13.07;;
26484;SDS011;18083;50.560;7.262;2023-02-15T12:25:17;22.10;;;12.83;;
26484;SDS011;18083;50.560;7.262;2023-02-15T12:27:33;22.53;;;13.73;;
26484;SDS011;18083;50.560;7.262;2023-02-15T12:30:04;19.10;;;13.43;;
26484;SDS011;18083;50.560;7.262;2023-02-15T12:32:34;21.57;;;12.40;;
26484;SDS011;18083;50.560;7.262;2023-02-15T12:35:09;19.77;;;12.13;;
26484;SDS011;18083;50.560;7.262;2023-02-15T12:37:37;19.40;;;13.27;;
26484;SDS011;18083;50.560;7.262;2023-02-15T12:40:20;22.50;;;12.97;;
26484;SDS011;18083;50.560;7.262;2023-02-15T12:42:48;22.63;;;12.77;;
26484;SDS011;18083;50.560;7.262;2023-02-15T12:45:33;20.13;;;14.00;;
26484;SDS011;18083;50.560;7.262;2023-02-15T12:48:09;26.20;;;13.53;;
26484;SDS011;18083;50.560;7.262;2023-02-15T12:50:38;19.60;;;12.57;;
26484;SDS011;18083;50.560;7.262;2023-02-15T12:53:33;18.77;;;14.77;;
26484;SDS011;18083;50.560;7.262;2023-02-15T12:55:54;20.80;;;12.90;;
26484;SDS011;18083;50.560;7.262;2023-02-15T12:58:23;22.33;;;12.57;;
26484;SDS011;18083;50.560;7.262;2023-02-15T13:01:08;18.77;;;12.60;;
26484;SDS011;18083;50.560;7.262;2023-02-15T13:03:32;20.43;;;14.63;;
26484;SDS011;18083;50.560;7.262;2023-02-15T13:06:00;21.67;;;13.80;;
26484;SDS011;18083;50.560;7.262;2023-02-15T13:08:29;20.13;;;12.33;;
26484;SDS011;18083;50.560;7.262;2023-02-15T13:10:59;22.83;;;15.07;;
26484;SDS011;18083;50.560;7.262;2023-02-15T13:13:27;18.40;;;11.30;;
26484;SDS011;18083;50.560;7.262;2023-02-15T13:15:59;15.57;;;10.73;;
26484;SDS011;18083;50.560;7.262;2023-02-15T13:18:31;20.80;;;13.50;;
26484;SDS011;18083;50.560;7.262;2023-02-15T13:21:21;20.80;;;13.23;;
26484;SDS011;18083;50.560;7.262;2023-02-15T13:23:28;17.77;;;11.83;;
26484;SDS011;18083;50.560;7.262;2023-02-15T13:25:56;23.80;;;12.70;;
26484;SDS011;18083;50.560;7.262;2023-02-15T13:28:26;19.90;;;12.17;;
26484;SDS011;18083;50.560;7.262;2023-02-15T13:30:53;19.90;;;12.63;;
26484;SDS011;18083;50.560;7.262;2023-02-15T13:33:26;20.73;;;12.47;;
26484;SDS011;18083;50.560;7.262;2023-02-15T13:35:56;24.73;;;12.97;;
26484;SDS011;18083;50.560;7.262;2023-02-15T13:41:03;19.50;;;12.90;;
26484;SDS011;18083;50.560;7.262;2023-02-15T13:43:39;18.90;;;12.97;;
26484;SDS011;18083;50.560;7.262;2023-02-15T13:46:16;19.97;;;13.20;;
26484;SDS011;18083;50.560;7.262;2023-02-15T13:53:53;21.87;;;13.17;;
26484;SDS011;18083;50.560;7.262;2023-02-15T13:56:20;19.43;;;12.10;;
26484;SDS011;18083;50.560;7.262;2023-02-15T13:59:00;15.03;;;11.83;;
26484;SDS011;18083;50.560;7.262;2023-02-15T14:01:46;16.33;;;12.73;;
26484;SDS011;18083;50.560;7.262;2023-02-15T14:12:31;19.02;;;12.93;;
26484;SDS011;18083;50.560;7.262;2023-02-15T14:20:36;20.30;;;12.90;;
26484;SDS011;18083;50.560;7.262;2023-02-15T14:23:01;19.10;;;11.88;;
26484;SDS011;18083;50.560;7.262;2023-02-15T14:25:30;15.78;;;10.65;;
26484;SDS011;18083;50.560;7.262;2023-02-15T14:28:01;18.85;;;12.07;;
26484;SDS011;18083;50.560;7.262;2023-02-15T14:30:27;20.23;;;13.13;;
26484;SDS011;18083;50.560;7.262;2023-02-15T14:32:56;19.82;;;12.10;;
26484;SDS011;18083;50.560;7.262;2023-02-15T14:35:25;16.77;;;11.97;;
26484;SDS011;18083;50.560;7.262;2023-02-15T14:48:39;19.02;;;11.33;;
26484;SDS011;18083;50.560;7.262;2023-02-15T14:51:06;18.17;;;12.47;;
26484;SDS011;18083;50.560;7.262;2023-02-15T14:53:38;17.77;;;12.03;;
26484;SDS011;18083;50.560;7.262;2023-02-15T14:56:16;16.48;;;11.15;;
26484;SDS011;18083;50.560;7.262;2023-02-15T15:01:28;17.07;;;11.73;;
26484;SDS011;18083;50.560;7.262;2023-02-15T15:04:21;16.93;;;12.57;;
26484;SDS011;18083;50.560;7.262;2023-02-15T15:09:01;22.50;;;13.30;;
26484;SDS011;18083;50.560;7.262;2023-02-15T15:13:58;16.93;;;12.10;;
26484;SDS011;18083;50.560;7.262;2023-02-15T15:19:04;24.73;;;11.60;;
26484;SDS011;18083;50.560;7.262;2023-02-15T15:21:51;18.40;;;9.87;;
26484;SDS011;18083;50.560;7.262;2023-02-15T15:29:50;15.70;;;10.80;;
26484;SDS011;18083;50.560;7.262;2023-02-15T15:32:19;20.07;;;11.83;;
26484;SDS011;18083;50.560;7.262;2023-02-15T15:34:52;13.20;;;9.83;;
26484;SDS011;18083;50.560;7.262;2023-02-15T15:37:21;19.37;;;11.83;;
26484;SDS011;18083;50.560;7.262;2023-02-15T15:47:49;16.47;;;10.87;;
26484;SDS011;18083;50.560;7.262;2023-02-15T15:50:14;20.20;;;12.83;;
26484;SDS011;18083;50.560;7.262;2023-02-15T15:52:44;16.73;;;11.80;;
26484;SDS011;18083;50.560;7.262;2023-02-15T15:55:16;18.80;;;11.17;;
26484;SDS011;18083;50.560;7.262;2023-02-15T15:57:44;25.03;;;12.17;;
26484;SDS011;18083;50.560;7.262;2023-02-15T16:02:50;24.77;;;12.93;;
26484;SDS011;18083;50.560;7.262;2023-02-15T16:05:17;25.00;;;11.87;;
26484;SDS011;18083;50.560;7.262;2023-02-15T16:07:45;17.03;;;11.50;;
26484;SDS011;18083;50.560;7.262;2023-02-15T16:10:22;23.40;;;12.60;;
26484;SDS011;18083;50.560;7.262;2023-02-15T16:12:50;17.33;;;11.03;;
26484;SDS011;18083;50.560;7.262;2023-02-15T16:15:19;16.00;;;10.17;;
26484;SDS011;18083;50.560;7.262;2023-02-15T16:17:47;18.90;;;11.93;;
26484;SDS011;18083;50.560;7.262;2023-02-15T16:22:49;15.90;;;11.07;;
26484;SDS011;18083;50.560;7.262;2023-02-15T16:27:51;20.87;;;11.90;;
26484;SDS011;18083;50.560;7.262;2023-02-15T16:32:48;20.87;;;12.70;;
26484;SDS011;18083;50.560;7.262;2023-02-15T16:35:18;18.27;;;12.33;;
26484;SDS011;18083;50.560;7.262;2023-02-15T16:37:46;19.77;;;12.47;;
26484;SDS011;18083;50.560;7.262;2023-02-15T16:42:52;22.97;;;12.70;;
26484;SDS011;18083;50.560;7.262;2023-02-15T16:45:20;17.87;;;11.93;;
26484;SDS011;18083;50.560;7.262;2023-02-15T16:47:49;18.57;;;12.37;;
26484;SDS011;18083;50.560;7.262;2023-02-15T16:50:18;18.37;;;12.17;;
26484;SDS011;18083;50.560;7.262;2023-02-15T16:52:46;18.20;;;12.47;;
26484;SDS011;18083;50.560;7.262;2023-02-15T16:55:28;24.80;;;14.13;;
26484;SDS011;18083;50.560;7.262;2023-02-15T16:57:53;16.77;;;11.33;;
26484;SDS011;18083;50.560;7.262;2023-02-15T17:00:21;18.90;;;12.40;;
26484;SDS011;18083;50.560;7.262;2023-02-15T17:02:59;17.37;;;11.40;;
26484;SDS011;18083;50.560;7.262;2023-02-15T17:05:31;22.17;;;11.57;;
26484;SDS011;18083;50.560;7.262;2023-02-15T17:10:29;19.90;;;12.30;;
26484;SDS011;18083;50.560;7.262;2023-02-15T17:13:05;21.43;;;13.43;;
26484;SDS011;18083;50.560;7.262;2023-02-15T17:15:29;20.53;;;14.17;;
26484;SDS011;18083;50.560;7.262;2023-02-15T17:17:58;24.00;;;13.03;;
26484;SDS011;18083;50.560;7.262;2023-02-15T17:20:25;22.97;;;14.43;;
26484;SDS011;18083;50.560;7.262;2023-02-15T17:22:53;24.00;;;14.07;;
26484;SDS011;18083;50.560;7.262;2023-02-15T17:25:23;23.80;;;12.80;;
26484;SDS011;18083;50.560;7.262;2023-02-15T17:27:55;21.97;;;12.97;;
26484;SDS011;18083;50.560;7.262;2023-02-15T17:30:39;21.33;;;12.73;;
26484;SDS011;18083;50.560;7.262;2023-02-15T17:32:54;21.40;;;12.37;;
26484;SDS011;18083;50.560;7.262;2023-02-15T17:35:22;23.90;;;13.40;;
26484;SDS011;18083;50.560;7.262;2023-02-15T17:38:02;26.17;;;13.83;;
26484;SDS011;18083;50.560;7.262;2023-02-15T17:40:31;19.10;;;11.87;;
26484;SDS011;18083;50.560;7.262;2023-02-15T17:42:59;23.00;;;13.47;;
26484;SDS011;18083;50.560;7.262;2023-02-15T17:45:33;24.80;;;12.40;;
26484;SDS011;18083;50.560;7.262;2023-02-15T17:48:02;18.53;;;12.63;;
26484;SDS011;18083;50.560;7.262;2023-02-15T17:50:30;19.67;;;13.00;;
26484;SDS011;18083;50.560;7.262;2023-02-15T17:52:57;24.37;;;14.63;;
26484;SDS011;18083;50.560;7.262;2023-02-15T17:55:26;20.27;;;12.53;;